Time;durP1;ratioP1;P1;durP2;ratioP2;P2;SDS_P1;SDS_P2;PMS_P1;PMS_P2;Temp;Humidity;BMP_temperature;BMP_pressure;BME280_temperature;BME280_humidity;BME280_pressure;Samples;Min_cycle;Max_cycle;Signal;HPM_P1;HPM_P2
2020/12/13 00:01:33;;;;;;;42.83;24.60;;;8.50;96.60;;;;;;5049952;28;20024;-42
2020/12/13 00:03:58;;;;;;;41.67;23.33;;;8.40;96.70;;;;;;5049904;28;20028;-42
2020/12/13 00:06:23;;;;;;;38.40;21.38;;;8.30;96.90;;;;;;5049109;28;20056;-42
2020/12/13 00:08:49;;;;;;;50.90;26.05;;;8.40;97.00;;;;;;5049634;28;20036;-42
2020/12/13 00:11:16;;;;;;;49.72;26.58;;;8.30;97.00;;;;;;5048873;28;20033;-42
2020/12/13 00:13:42;;;;;;;51.78;27.50;;;8.30;97.00;;;;;;5049659;28;20131;-42
2020/12/13 00:16:08;;;;;;;49.45;25.75;;;8.30;97.00;;;;;;5049104;28;20116;-43
2020/12/13 00:18:35;;;;;;;49.80;25.92;;;8.30;97.00;;;;;;5049387;28;20114;-43
2020/12/13 00:21:00;;;;;;;47.85;25.13;;;8.30;97.00;;;;;;5049832;28;20036;-43
2020/12/13 00:23:26;;;;;;;47.63;25.50;;;8.30;97.20;;;;;;5049325;28;20021;-43
2020/12/13 00:25:51;;;;;;;38.10;21.10;;;8.30;97.10;;;;;;5048978;28;20491;-42
2020/12/13 00:28:17;;;;;;;45.42;22.65;;;8.20;97.00;;;;;;5048840;28;20100;-42
2020/12/13 00:30:42;;;;;;;43.72;22.45;;;8.30;97.10;;;;;;5049635;28;20047;-42
2020/12/13 00:33:07;;;;;;;46.13;25.55;;;8.30;97.10;;;;;;5048404;28;20511;-43
2020/12/13 00:35:33;;;;;;;47.13;24.05;;;8.30;97.00;;;;;;5049735;28;20079;-43
2020/12/13 00:37:58;;;;;;;48.35;25.40;;;8.30;97.00;;;;;;5049156;28;20091;-41
2020/12/13 00:40:24;;;;;;;47.28;26.02;;;8.30;97.00;;;;;;5045459;28;20032;-43
2020/12/13 00:42:49;;;;;;;49.20;26.17;;;8.30;96.90;;;;;;5048787;28;20044;-43
2020/12/13 00:45:15;;;;;;;48.75;26.05;;;8.20;96.90;;;;;;5048572;28;20025;-42
2020/12/13 00:47:40;;;;;;;46.70;24.60;;;8.20;97.00;;;;;;5048629;28;20427;-42
2020/12/13 00:50:06;;;;;;;41.20;23.17;;;8.20;97.00;;;;;;5049108;28;20104;-43
2020/12/13 00:52:31;;;;;;;42.38;22.40;;;8.20;97.10;;;;;;5048104;28;20488;-43
2020/12/13 00:54:57;;;;;;;42.95;22.40;;;8.20;97.10;;;;;;5048173;28;20505;-43
2020/12/13 00:57:24;;;;;;;47.10;24.92;;;8.20;97.10;;;;;;5048564;28;20048;-43
2020/12/13 00:59:50;;;;;;;55.15;28.98;;;8.20;97.10;;;;;;5048802;28;20033;-42
2020/12/13 01:02:15;;;;;;;54.30;28.50;;;8.20;97.10;;;;;;5047939;28;20028;-41
2020/12/13 01:04:41;;;;;;;50.65;26.20;;;8.20;97.00;;;;;;5049016;28;20598;-42
2020/12/13 01:07:06;;;;;;;46.72;25.23;;;8.20;97.00;;;;;;5048324;28;20095;-43
2020/12/13 01:09:32;;;;;;;44.17;24.10;;;8.30;97.00;;;;;;5048253;28;20025;-42
2020/12/13 01:11:57;;;;;;;45.33;23.98;;;8.20;97.00;;;;;;5048540;28;20048;-43
2020/12/13 01:14:24;;;;;;;39.20;21.65;;;8.30;97.00;;;;;;5047301;28;20025;-43
2020/12/13 01:16:51;;;;;;;37.30;19.90;;;8.30;97.00;;;;;;5048866;28;20029;-43
2020/12/13 01:19:16;;;;;;;39.60;21.05;;;8.30;97.00;;;;;;5048349;28;20079;-43
2020/12/13 01:21:42;;;;;;;35.03;19.75;;;8.30;97.00;;;;;;5047854;28;20694;-42
2020/12/13 01:24:07;;;;;;;37.58;20.60;;;8.30;97.00;;;;;;5047893;28;20021;-44
2020/12/13 01:26:33;;;;;;;36.67;19.17;;;8.30;97.00;;;;;;5048428;28;20500;-42
2020/12/13 01:28:58;;;;;;;37.65;19.77;;;8.30;97.00;;;;;;5047424;28;20014;-42
2020/12/13 01:31:24;;;;;;;35.35;18.92;;;8.30;97.00;;;;;;5047687;28;20468;-43
2020/12/13 01:33:51;;;;;;;35.60;19.20;;;8.30;97.00;;;;;;5048512;28;20690;-42
2020/12/13 01:36:23;;;;;;;30.65;17.42;;;8.20;96.90;;;;;;5046996;28;20025;-42
2020/12/13 01:38:49;;;;;;;35.38;18.25;;;8.30;97.00;;;;;;5047639;28;20115;-43
2020/12/13 01:41:15;;;;;;;36.33;18.85;;;8.20;97.00;;;;;;5047596;28;20109;-43
2020/12/13 01:43:54;;;;;;;33.28;18.30;;;8.20;97.00;;;;;;5047447;28;20086;-44
2020/12/13 01:46:20;;;;;;;36.60;18.20;;;8.20;97.00;;;;;;5047335;28;20075;-43
2020/12/13 01:48:45;;;;;;;34.20;18.25;;;8.30;97.00;;;;;;5048075;28;20037;-43
2020/12/13 01:51:21;;;;;;;35.65;18.42;;;8.30;97.00;;;;;;5046727;28;20065;-43
2020/12/13 01:53:49;;;;;;;33.42;16.88;;;8.30;96.90;;;;;;5047655;28;20404;-43
2020/12/13 01:56:15;;;;;;;34.15;16.63;;;8.30;96.90;;;;;;5046920;28;20029;-43
2020/12/13 01:58:42;;;;;;;35.90;17.38;;;8.30;96.90;;;;;;5047551;28;20024;-43
2020/12/13 02:01:08;;;;;;;34.25;17.38;;;8.30;96.90;;;;;;5046986;28;20448;-43
2020/12/13 02:03:54;;;;;;;34.28;17.27;;;8.30;96.90;;;;;;5047205;28;20544;-42
2020/12/13 02:06:26;;;;;;;38.72;18.13;;;8.30;96.90;;;;;;5046333;28;20507;-43
2020/12/13 02:08:52;;;;;;;35.03;16.70;;;8.20;96.90;;;;;;5047730;28;20033;-42
2020/12/13 02:11:19;;;;;;;33.25;17.58;;;8.20;96.90;;;;;;5046470;28;20610;-43
2020/12/13 02:13:46;;;;;;;35.25;17.10;;;8.20;96.90;;;;;;5047832;28;20029;-43
2020/12/13 02:16:12;;;;;;;35.58;17.40;;;8.20;96.90;;;;;;5046817;28;20384;-42
2020/12/13 02:18:40;;;;;;;37.90;18.52;;;8.20;96.90;;;;;;5046637;28;20029;-43
2020/12/13 02:21:06;;;;;;;46.80;17.77;;;8.20;96.90;;;;;;5046658;28;20021;-43
2020/12/13 02:23:31;;;;;;;38.67;17.27;;;8.20;96.90;;;;;;5047176;28;20010;-43
2020/12/13 02:25:57;;;;;;;32.40;17.08;;;8.20;96.90;;;;;;5046775;28;20082;-42
2020/12/13 02:28:22;;;;;;;36.40;17.55;;;8.20;96.90;;;;;;5046859;28;20606;-41
2020/12/13 02:30:50;;;;;;;35.38;17.40;;;8.20;97.00;;;;;;5047148;28;20462;-43
2020/12/13 02:33:15;;;;;;;32.72;17.08;;;8.20;96.90;;;;;;5045878;28;20562;-42
2020/12/13 02:35:41;;;;;;;33.60;16.98;;;8.30;97.00;;;;;;5047066;28;20021;-42
2020/12/13 02:38:06;;;;;;;45.20;16.48;;;8.30;96.90;;;;;;5046552;28;20127;-43
2020/12/13 02:40:32;;;;;;;39.08;17.02;;;8.30;96.90;;;;;;5046396;28;20029;-43
2020/12/13 02:42:57;;;;;;;44.20;17.55;;;8.30;96.90;;;;;;5047134;28;20120;-42
2020/12/13 02:45:23;;;;;;;53.63;17.95;;;8.30;96.80;;;;;;5045934;28;20045;-43
2020/12/13 02:47:48;;;;;;;40.95;17.23;;;8.30;96.80;;;;;;5046477;28;20036;-43
2020/12/13 02:50:14;;;;;;;44.22;17.95;;;8.30;96.80;;;;;;5046404;28;20029;-42
2020/12/13 02:52:39;;;;;;;42.28;16.42;;;8.30;96.80;;;;;;5046628;28;20059;-42
2020/12/13 02:55:05;;;;;;;44.97;17.25;;;8.30;96.80;;;;;;5046633;28;20045;-42
2020/12/13 02:57:30;;;;;;;35.60;17.02;;;8.30;96.70;;;;;;5046820;28;20400;-42
2020/12/13 02:59:56;;;;;;;37.40;17.35;;;8.30;96.80;;;;;;5046296;28;20044;-42
2020/12/13 03:02:21;;;;;;;38.17;17.30;;;8.30;96.80;;;;;;5046155;28;20151;-43
2020/12/13 03:04:47;;;;;;;34.08;17.05;;;8.30;96.80;;;;;;5046900;28;20574;-43
2020/12/13 03:07:12;;;;;;;34.10;16.90;;;8.30;96.80;;;;;;5045842;28;20041;-43
2020/12/13 03:09:38;;;;;;;41.05;16.33;;;8.30;96.80;;;;;;5046667;28;20087;-43
2020/12/13 03:12:05;;;;;;;31.02;15.73;;;8.30;96.70;;;;;;5046933;28;20021;-43
2020/12/13 03:14:31;;;;;;;35.58;15.43;;;8.30;96.70;;;;;;5045765;28;20021;-42
2020/12/13 03:16:56;;;;;;;35.95;17.70;;;8.40;96.80;;;;;;5048540;28;20017;-43
2020/12/13 03:19:22;;;;;;;37.03;16.88;;;8.30;96.80;;;;;;5050199;28;20027;-43
2020/12/13 03:21:47;;;;;;;45.67;18.20;;;8.30;96.80;;;;;;5049921;28;20104;-43
2020/12/13 03:24:13;;;;;;;47.90;18.63;;;8.40;96.80;;;;;;5049959;28;20480;-44
2020/12/13 03:26:39;;;;;;;41.22;17.98;;;8.40;96.70;;;;;;5050819;28;20021;-42
2020/12/13 03:29:07;;;;;;;63.08;17.80;;;8.40;96.70;;;;;;5050510;28;20025;-43
2020/12/13 03:31:32;;;;;;;46.45;18.23;;;8.40;96.70;;;;;;5050226;28;20044;-42
2020/12/13 03:33:58;;;;;;;40.58;17.83;;;8.40;96.70;;;;;;5050120;28;20036;-43
2020/12/13 03:36:23;;;;;;;43.00;16.73;;;8.40;96.60;;;;;;5049462;28;20028;-43
2020/12/13 03:38:49;;;;;;;36.60;16.38;;;8.40;96.60;;;;;;5050689;28;20025;-42
2020/12/13 03:41:14;;;;;;;35.35;16.70;;;8.40;96.70;;;;;;5049711;28;20770;-42
2020/12/13 03:43:40;;;;;;;35.25;16.95;;;8.40;96.70;;;;;;5049583;28;20032;-43
2020/12/13 03:46:05;;;;;;;49.83;17.20;;;8.40;96.70;;;;;;5050070;28;20033;-43
2020/12/13 03:48:31;;;;;;;47.40;16.70;;;8.40;96.70;;;;;;5049685;28;20358;-43
2020/12/13 03:50:56;;;;;;;33.70;16.48;;;8.40;96.90;;;;;;5049755;28;20045;-43
2020/12/13 03:53:22;;;;;;;56.78;16.50;;;8.40;96.70;;;;;;5049044;28;20056;-42
2020/12/13 03:55:47;;;;;;;47.45;16.27;;;8.40;96.70;;;;;;5050082;28;20163;-43
2020/12/13 03:58:13;;;;;;;35.58;16.08;;;8.40;96.70;;;;;;5049269;28;20043;-43
2020/12/13 04:00:38;;;;;;;67.45;16.65;;;8.40;96.70;;;;;;5049896;28;20025;-43
2020/12/13 04:03:04;;;;;;;36.03;15.27;;;8.40;96.70;;;;;;5049839;28;20519;-43
2020/12/13 04:05:35;;;;;;;40.20;16.48;;;8.30;96.70;;;;;;5048793;28;20465;-43
2020/12/13 04:08:01;;;;;;;37.08;17.38;;;8.40;96.70;;;;;;5050109;28;20025;-43
2020/12/13 04:10:26;;;;;;;36.38;17.45;;;8.40;96.70;;;;;;5048579;28;20463;-41
2020/12/13 04:12:52;;;;;;;48.95;17.38;;;8.40;96.70;;;;;;5049725;28;20048;-41
2020/12/13 04:15:18;;;;;;;43.85;17.23;;;8.40;96.70;;;;;;5048921;28;20519;-43
2020/12/13 04:17:47;;;;;;;39.90;17.17;;;8.40;96.60;;;;;;5049045;28;20028;-43
2020/12/13 04:20:12;;;;;;;37.50;16.25;;;8.40;96.60;;;;;;5049261;28;20031;-42
2020/12/13 04:22:38;;;;;;;72.35;17.70;;;8.40;96.60;;;;;;5049411;28;20055;-42
2020/12/13 04:25:05;;;;;;;35.47;16.80;;;8.40;96.60;;;;;;5048863;28;20472;-42
2020/12/13 04:27:31;;;;;;;57.05;18.23;;;8.40;96.60;;;;;;5048373;28;20063;-43
2020/12/13 04:29:56;;;;;;;49.90;16.55;;;8.40;96.60;;;;;;5049213;28;20056;-42
2020/12/13 04:32:22;;;;;;;48.05;17.05;;;8.40;96.60;;;;;;5048116;28;20036;-42
2020/12/13 04:34:49;;;;;;;55.65;16.75;;;8.40;96.60;;;;;;5049643;28;20037;-42
2020/12/13 04:37:15;;;;;;;45.92;17.27;;;8.40;96.60;;;;;;5048573;28;20063;-43
2020/12/13 04:39:40;;;;;;;38.95;16.75;;;8.40;96.60;;;;;;5048739;28;20633;-44
2020/12/13 04:42:06;;;;;;;40.95;18.42;;;8.40;96.60;;;;;;5049096;28;20537;-43
2020/12/13 04:44:32;;;;;;;37.13;17.00;;;8.40;96.60;;;;;;5048542;28;20056;-43
2020/12/13 04:47:04;;;;;;;36.08;16.35;;;8.40;96.60;;;;;;5048355;28;20029;-42
2020/12/13 04:49:31;;;;;;;40.55;16.95;;;8.50;96.70;;;;;;5048430;28;20033;-42
2020/12/13 04:51:58;;;;;;;33.00;16.25;;;8.50;96.60;;;;;;5049208;28;20423;-42
2020/12/13 04:54:25;;;;;;;37.03;17.05;;;8.50;96.60;;;;;;5047658;28;20397;-42
2020/12/13 04:56:51;;;;;;;37.65;17.10;;;8.50;96.60;;;;;;5048871;28;20083;-41
2020/12/13 04:59:18;;;;;;;34.78;16.77;;;8.50;96.60;;;;;;5048484;28;20029;-42
2020/12/13 05:01:47;;;;;;;38.80;18.27;;;8.50;96.60;;;;;;5048343;28;20427;-42
2020/12/13 05:04:14;;;;;;;38.00;16.88;;;8.50;96.60;;;;;;5048263;28;20063;-43
2020/12/13 05:06:40;;;;;;;37.05;17.77;;;8.50;96.60;;;;;;5048176;28;20029;-43
2020/12/13 05:09:07;;;;;;;34.67;16.98;;;8.60;96.60;;;;;;5048276;28;20068;-43
2020/12/13 05:11:33;;;;;;;41.83;17.23;;;8.60;96.60;;;;;;5048455;28;20036;-42
2020/12/13 05:13:59;;;;;;;40.95;17.90;;;8.60;96.60;;;;;;5048287;28;20029;-42
2020/12/13 05:16:24;;;;;;;37.92;18.00;;;8.60;96.60;;;;;;5047824;28;20037;-43
2020/12/13 05:18:52;;;;;;;37.55;17.98;;;8.60;96.60;;;;;;5048351;28;20029;-42
2020/12/13 05:21:22;;;;;;;40.28;17.83;;;8.60;96.50;;;;;;5047722;28;20135;-43
2020/12/13 05:23:48;;;;;;;38.85;18.85;;;8.60;96.50;;;;;;5048371;28;20029;-43
2020/12/13 05:26:19;;;;;;;35.60;17.10;;;8.60;96.50;;;;;;5047738;28;20029;-42
2020/12/13 05:28:53;;;;;;;35.33;16.65;;;8.60;96.50;;;;;;5047900;28;20082;-43
2020/12/13 05:31:24;;;;;;;37.70;16.65;;;8.60;96.50;;;;;;5047798;28;20025;-43
2020/12/13 05:33:54;;;;;;;32.40;16.50;;;8.60;96.50;;;;;;5048247;28;20033;-43
2020/12/13 05:36:20;;;;;;;36.17;16.45;;;8.60;96.50;;;;;;5047262;28;20025;-43
2020/12/13 05:38:46;;;;;;;33.17;16.88;;;8.60;96.50;;;;;;5047670;28;20400;-42
2020/12/13 05:41:14;;;;;;;33.35;16.00;;;8.60;96.60;;;;;;5047551;28;20301;-42
2020/12/13 05:44:00;;;;;;;31.98;17.35;;;8.60;96.60;;;;;;5048097;28;20025;-42
2020/12/13 05:46:55;;;;;;;29.50;16.35;;;8.60;96.60;;;;;;5047435;28;20036;-44
2020/12/13 05:49:36;;;;;;;31.15;17.08;;;8.60;96.60;;;;;;5046944;28;20056;-42
2020/12/13 05:52:03;;;;;;;29.98;16.67;;;8.60;96.60;;;;;;5047727;28;20056;-42
2020/12/13 05:54:29;;;;;;;24.88;15.00;;;8.60;96.60;;;;;;5047526;28;20083;-42
2020/12/13 05:56:59;;;;;;;27.15;15.45;;;8.60;96.60;;;;;;5047237;28;20488;-42
2020/12/13 05:59:26;;;;;;;29.20;16.73;;;8.60;96.60;;;;;;5046936;28;20029;-41
2020/12/13 06:01:58;;;;;;;32.25;16.27;;;8.70;96.60;;;;;;5047706;28;20546;-41
2020/12/13 06:04:32;;;;;;;28.83;16.95;;;8.70;96.60;;;;;;5046468;28;20029;-42
2020/12/13 06:07:02;;;;;;;33.05;17.27;;;8.70;96.90;;;;;;5047288;28;20571;-42
2020/12/13 06:09:33;;;;;;;24.10;14.20;;;8.70;96.60;;;;;;5046941;28;20039;-43
2020/12/13 06:12:07;;;;;;;23.15;14.45;;;8.70;96.60;;;;;;5047181;28;20037;-43
2020/12/13 06:14:33;;;;;;;24.70;15.48;;;8.70;96.60;;;;;;5047480;28;20616;-43
2020/12/13 06:17:01;;;;;;;28.90;17.23;;;8.70;96.80;;;;;;5047206;28;20119;-43
2020/12/13 06:19:30;;;;;;;26.13;16.85;;;8.70;96.60;;;;;;5047181;28;20029;-43
2020/12/13 06:21:57;;;;;;;30.38;18.25;;;8.70;96.70;;;;;;5047369;28;20037;-42
2020/12/13 06:24:23;;;;;;;28.92;18.20;;;8.70;96.70;;;;;;5046567;28;20031;-43
2020/12/13 06:26:50;;;;;;;28.90;19.20;;;8.70;96.70;;;;;;5047114;28;20094;-43
2020/12/13 06:29:17;;;;;;;30.60;19.35;;;8.70;96.70;;;;;;5046443;28;20132;-42
2020/12/13 06:31:45;;;;;;;27.40;18.35;;;8.80;96.70;;;;;;5047002;28;20028;-43
2020/12/13 06:34:10;;;;;;;32.53;19.13;;;8.80;96.70;;;;;;5046989;28;20064;-42
2020/12/13 06:36:37;;;;;;;26.08;17.83;;;8.80;96.70;;;;;;5047023;28;20095;-41
2020/12/13 06:39:14;;;;;;;32.42;20.27;;;8.80;96.70;;;;;;5046916;28;20035;-42
2020/12/13 06:41:45;;;;;;;30.65;19.48;;;8.80;96.70;;;;;;5047051;28;20032;-42
2020/12/13 06:44:12;;;;;;;31.40;19.17;;;8.80;96.70;;;;;;5046712;28;20029;-43
2020/12/13 06:46:40;;;;;;;29.95;20.40;;;8.80;96.80;;;;;;5047012;28;20059;-41
2020/12/13 06:49:08;;;;;;;34.83;22.58;;;8.80;96.80;;;;;;5046733;28;20021;-42
2020/12/13 06:51:38;;;;;;;30.35;20.77;;;8.80;96.90;;;;;;5046014;28;20143;-42
2020/12/13 06:54:06;;;;;;;33.88;21.73;;;8.80;96.90;;;;;;5046301;28;20455;-43
2020/12/13 06:56:33;;;;;;;29.25;18.98;;;8.80;96.90;;;;;;5046824;28;20028;-43
2020/12/13 06:59:04;;;;;;;33.33;21.20;;;8.80;96.90;;;;;;5046597;28;20106;-42
2020/12/13 07:01:36;;;;;;;32.03;20.80;;;8.80;97.00;;;;;;5046513;28;20055;-42
2020/12/13 07:04:21;;;;;;;26.88;18.05;;;8.80;97.00;;;;;;5046783;28;20200;-42
2020/12/13 07:06:47;;;;;;;28.83;19.00;;;8.80;97.00;;;;;;5046484;28;20064;-43
2020/12/13 07:09:14;;;;;;;26.25;18.27;;;8.90;97.00;;;;;;5046431;28;20021;-44
2020/12/13 07:11:42;;;;;;;26.60;17.67;;;8.90;97.00;;;;;;5046943;28;20162;-43
2020/12/13 07:14:11;;;;;;;28.17;17.98;;;8.90;97.00;;;;;;5045693;28;20028;-42
2020/12/13 07:16:43;;;;;;;28.95;17.80;;;8.90;97.00;;;;;;5046721;28;20104;-43
2020/12/13 07:19:11;;;;;;;25.13;16.70;;;8.90;97.00;;;;;;5046374;28;20528;-43
2020/12/13 07:21:37;;;;;;;25.42;16.35;;;8.90;97.00;;;;;;5046139;28;20505;-44
2020/12/13 07:24:04;;;;;;;23.00;15.73;;;8.90;97.00;;;;;;5047063;28;20056;-43
2020/12/13 07:26:32;;;;;;;28.08;17.60;;;8.90;96.90;;;;;;5046295;28;20025;-43
2020/12/13 07:28:59;;;;;;;27.00;17.65;;;8.90;97.00;;;;;;5046352;28;20034;-43
2020/12/13 07:31:26;;;;;;;26.58;15.70;;;8.90;97.00;;;;;;5046022;28;20028;-42
2020/12/13 07:33:52;;;;;;;26.60;16.80;;;8.90;97.00;;;;;;5046665;28;20484;-43
2020/12/13 07:36:19;;;;;;;24.00;15.35;;;8.90;97.00;;;;;;5045874;28;20033;-42
2020/12/13 07:38:45;;;;;;;20.65;14.15;;;8.90;97.00;;;;;;5046573;28;20816;-43
2020/12/13 07:41:29;;;;;;;22.40;14.93;;;8.90;97.00;;;;;;5046078;28;20380;-43
2020/12/13 07:44:11;;;;;;;23.40;15.20;;;9.00;97.00;;;;;;5046672;28;20132;-43
2020/12/13 07:46:38;;;;;;;22.27;14.25;;;9.00;96.90;;;;;;5046578;28;20069;-42
2020/12/13 07:49:12;;;;;;;22.95;15.32;;;9.00;96.90;;;;;;5045951;28;20704;-43
2020/12/13 07:51:40;;;;;;;22.42;15.13;;;9.00;97.00;;;;;;5046758;28;20029;-42
2020/12/13 07:54:17;;;;;;;27.05;17.23;;;9.00;96.90;;;;;;5045809;28;20063;-43
2020/12/13 07:56:44;;;;;;;23.35;16.00;;;9.00;96.90;;;;;;5045973;28;20029;-43
2020/12/13 07:59:12;;;;;;;25.38;17.38;;;9.00;96.90;;;;;;5046194;28;20052;-43
2020/12/13 08:01:39;;;;;;;23.52;17.17;;;9.00;96.90;;;;;;5046349;28;20380;-43
2020/12/13 08:04:05;;;;;;;25.25;16.92;;;9.00;96.90;;;;;;5049771;28;20045;-42
2020/12/13 08:06:31;;;;;;;26.27;17.63;;;9.00;96.90;;;;;;5049829;28;20071;-43
2020/12/13 08:08:56;;;;;;;24.20;15.80;;;9.00;96.90;;;;;;5049858;28;20437;-43
2020/12/13 08:11:23;;;;;;;21.35;15.48;;;9.00;96.90;;;;;;5048698;28;20029;-42
2020/12/13 08:13:54;;;;;;;25.63;16.73;;;9.00;96.90;;;;;;5050100;28;20707;-43
2020/12/13 08:16:22;;;;;;;24.15;16.60;;;9.00;96.90;;;;;;5048968;28;20017;-43
2020/12/13 08:18:50;;;;;;;24.00;16.80;;;9.00;97.00;;;;;;5049912;28;20032;-43
2020/12/13 08:21:37;;;;;;;22.77;16.60;;;9.00;97.00;;;;;;5049054;28;20056;-42
2020/12/13 08:24:03;;;;;;;25.40;17.65;;;9.00;96.90;;;;;;5049319;28;20083;-41
2020/12/13 08:26:31;;;;;;;26.80;17.48;;;9.00;96.90;;;;;;5049236;28;20044;-42
2020/12/13 08:29:00;;;;;;;21.65;16.88;;;9.00;96.90;;;;;;5049950;28;20040;-43
2020/12/13 08:31:28;;;;;;;21.48;15.57;;;9.00;96.90;;;;;;5048582;28;20033;-44
2020/12/13 08:34:06;;;;;;;25.25;16.38;;;9.00;96.90;;;;;;5049761;28;20036;-43
2020/12/13 08:36:32;;;;;;;23.33;16.80;;;9.00;96.90;;;;;;5048945;28;20557;-43
2020/12/13 08:39:09;;;;;;;20.90;15.40;;;9.00;96.90;;;;;;5048925;28;20084;-43
2020/12/13 08:41:35;;;;;;;20.35;14.73;;;9.00;96.90;;;;;;5048984;28;20108;-43
2020/12/13 08:44:01;;;;;;;19.42;14.32;;;9.00;96.90;;;;;;5049042;28;20048;-42
2020/12/13 08:46:38;;;;;;;19.17;14.07;;;9.00;96.90;;;;;;5047994;28;20068;-43
2020/12/13 08:49:06;;;;;;;22.15;15.82;;;9.00;96.90;;;;;;5049620;28;20094;-43
2020/12/13 08:51:32;;;;;;;21.23;15.70;;;9.00;96.90;;;;;;5048837;28;20029;-42
2020/12/13 08:54:01;;;;;;;18.50;15.88;;;9.00;96.90;;;;;;5049065;28;20067;-43
2020/12/13 08:56:35;;;;;;;16.77;13.98;;;9.10;97.00;;;;;;5048485;28;20111;-43
2020/12/13 08:59:01;;;;;;;16.80;14.07;;;9.00;96.90;;;;;;5048801;28;20029;-42
2020/12/13 09:01:33;;;;;;;20.17;14.75;;;9.10;97.00;;;;;;5044896;28;20029;-44
2020/12/13 09:03:59;;;;;;;19.27;14.47;;;9.10;96.90;;;;;;5048116;28;20039;-42
2020/12/13 09:06:33;;;;;;;16.42;14.18;;;9.10;96.90;;;;;;5047293;28;20087;-43
2020/12/13 09:09:12;;;;;;;16.95;13.52;;;9.10;96.90;;;;;;5048269;28;20056;-42
2020/12/13 09:11:38;;;;;;;20.15;14.82;;;9.10;96.90;;;;;;5047797;28;20058;-43
2020/12/13 09:14:03;;;;;;;23.33;16.05;;;9.00;96.90;;;;;;5047537;28;20434;-43
2020/12/13 09:16:31;;;;;;;21.13;16.35;;;9.00;96.90;;;;;;5047444;28;20025;-43
2020/12/13 09:19:07;;;;;;;23.50;15.20;;;9.00;96.90;;;;;;5048181;28;20029;-42
2020/12/13 09:21:47;;;;;;;23.63;16.73;;;9.00;96.90;;;;;;5047292;28;20029;-43
2020/12/13 09:24:15;;;;;;;18.40;14.45;;;9.00;96.90;;;;;;5047334;28;20081;-43
2020/12/13 09:26:40;;;;;;;18.23;14.10;;;9.00;96.90;;;;;;5047140;28;20052;-40
2020/12/13 09:29:06;;;;;;;19.63;13.95;;;8.90;96.90;;;;;;5047731;28;20033;-43
2020/12/13 09:31:32;;;;;;;18.63;15.40;;;9.00;97.00;;;;;;5047366;28;20074;-42
2020/12/13 09:33:58;;;;;;;21.70;15.60;;;8.90;96.90;;;;;;5047031;28;20116;-43
2020/12/13 09:36:23;;;;;;;18.83;14.77;;;9.00;97.00;;;;;;5046909;28;20040;-43
2020/12/13 09:38:49;;;;;;;20.85;15.02;;;9.00;97.00;;;;;;5047213;28;20021;-42
2020/12/13 09:41:18;;;;;;;26.15;16.63;;;9.00;97.00;;;;;;5045946;28;20417;-41
2020/12/13 09:43:44;;;;;;;18.05;13.93;;;9.00;97.00;;;;;;5047812;28;20515;-44
2020/12/13 09:46:10;;;;;;;26.02;16.40;;;9.00;97.00;;;;;;5046475;28;20029;-44
2020/12/13 09:48:35;;;;;;;22.85;16.58;;;9.00;97.00;;;;;;5053099;28;20039;-43
2020/12/13 09:51:01;;;;;;;24.45;15.85;;;9.00;97.00;;;;;;5057310;28;20036;-43
2020/12/13 09:53:26;;;;;;;23.00;16.45;;;9.00;97.00;;;;;;5055392;28;20052;-43
2020/12/13 09:55:51;;;;;;;27.33;18.30;;;9.10;97.00;;;;;;5056436;28;20028;-42
2020/12/13 09:58:17;;;;;;;26.88;17.10;;;9.00;96.90;;;;;;5056829;28;20079;-43
2020/12/13 10:00:42;;;;;;;27.63;17.73;;;9.10;97.00;;;;;;5055398;28;20102;-43
2020/12/13 10:03:08;;;;;;;26.95;18.27;;;9.00;97.00;;;;;;5056150;28;20032;-43
2020/12/13 10:06:28;;;;;;;26.80;18.80;;;9.10;97.00;;;;;;5057094;28;20074;-42
2020/12/13 10:11:03;;;;;;;34.60;22.13;;;9.00;96.90;;;;;;5047531;28;20048;-42
2020/12/13 10:13:29;;;;;;;34.20;22.67;;;9.10;96.90;;;;;;5060934;28;20029;-43
2020/12/13 10:15:54;;;;;;;41.92;25.08;;;9.00;96.90;;;;;;5066998;28;20099;-43
2020/12/13 10:18:20;;;;;;;33.90;24.15;;;9.10;96.90;;;;;;5066826;28;20036;-43
2020/12/13 10:20:45;;;;;;;29.70;22.65;;;9.10;96.90;;;;;;5067465;28;20021;-42
2020/12/13 10:23:11;;;;;;;34.95;23.52;;;9.10;96.90;;;;;;5066749;28;20028;-41
2020/12/13 10:25:36;;;;;;;35.00;24.48;;;9.10;96.90;;;;;;5064383;28;20056;-43
2020/12/13 10:28:01;;;;;;;38.58;24.67;;;9.20;96.70;;;;;;5050102;28;20116;-43
2020/12/13 10:30:27;;;;;;;33.35;23.30;;;9.20;96.50;;;;;;5054018;28;20036;-44
2020/12/13 10:32:57;;;;;;;32.38;23.83;;;9.20;96.40;;;;;;5066399;28;20395;-42
2020/12/13 10:35:22;;;;;;;33.80;23.13;;;9.10;96.50;;;;;;5066710;28;20036;-44
2020/12/13 10:37:48;;;;;;;35.63;24.50;;;9.20;96.50;;;;;;5067065;28;20033;-42
2020/12/13 10:40:13;;;;;;;40.15;21.70;;;9.20;96.40;;;;;;5066461;28;20029;-42
2020/12/13 10:42:38;;;;;;;34.97;23.95;;;9.20;96.70;;;;;;5067313;28;20738;-42
2020/12/13 10:45:04;;;;;;;34.53;22.88;;;9.20;96.30;;;;;;5066781;28;20017;-43
2020/12/13 10:47:29;;;;;;;34.08;23.48;;;9.20;96.40;;;;;;5066351;28;20463;-42
2020/12/13 10:49:55;;;;;;;30.90;21.50;;;9.20;96.40;;;;;;5067276;28;20039;-42
2020/12/13 10:52:20;;;;;;;31.77;22.95;;;9.30;96.40;;;;;;5065004;28;20052;-43
2020/12/13 10:54:46;;;;;;;30.25;22.38;;;9.30;96.30;;;;;;5045644;28;20021;-44
2020/12/13 10:57:12;;;;;;;31.00;21.13;;;9.30;96.30;;;;;;5046557;28;20375;-43
2020/12/13 10:59:37;;;;;;;27.80;20.90;;;9.30;96.30;;;;;;5046114;28;20025;-43
2020/12/13 11:02:03;;;;;;;32.65;22.15;;;9.40;96.30;;;;;;5046939;28;20091;-43
2020/12/13 11:04:28;;;;;;;25.48;18.95;;;9.40;96.10;;;;;;5046407;28;20036;-41
2020/12/13 11:06:54;;;;;;;28.88;18.73;;;9.50;96.30;;;;;;5066334;28;20036;-42
2020/12/13 11:09:20;;;;;;;24.63;17.83;;;9.50;96.20;;;;;;5065669;28;20028;-43
2020/12/13 11:11:46;;;;;;;25.38;16.95;;;9.60;96.20;;;;;;5067058;28;20050;-44
2020/12/13 11:14:12;;;;;;;23.02;16.15;;;9.60;96.10;;;;;;5065886;28;20032;-43
2020/12/13 11:16:38;;;;;;;18.92;16.00;;;9.60;96.00;;;;;;5066998;28;20086;-42
2020/12/13 11:19:05;;;;;;;21.75;14.27;;;9.70;96.00;;;;;;5067091;28;20021;-43
2020/12/13 11:21:31;;;;;;;23.83;14.55;;;9.70;96.00;;;;;;5066079;28;20029;-42
2020/12/13 11:23:56;;;;;;;17.50;12.75;;;9.70;95.90;;;;;;5062781;28;20055;-42
2020/12/13 11:26:22;;;;;;;19.58;13.80;;;9.70;95.90;;;;;;5065183;28;20046;-42
2020/12/13 11:28:47;;;;;;;16.20;13.02;;;9.80;95.80;;;;;;5053103;28;20033;-44
2020/12/13 11:31:15;;;;;;;19.30;13.93;;;9.70;95.80;;;;;;5065900;28;20075;-42
2020/12/13 11:33:41;;;;;;;19.80;15.05;;;9.80;95.80;;;;;;5066400;28;20137;-43
2020/12/13 11:36:06;;;;;;;19.80;15.13;;;9.80;95.60;;;;;;5066487;28;20226;-43
2020/12/13 11:38:32;;;;;;;21.10;14.02;;;9.80;95.50;;;;;;5068580;28;20030;-43
2020/12/13 11:40:57;;;;;;;19.90;12.88;;;9.80;95.30;;;;;;5070073;28;20080;-43
2020/12/13 11:43:22;;;;;;;17.65;11.32;;;9.70;95.30;;;;;;5070081;28;20085;-42
2020/12/13 11:45:48;;;;;;;15.23;10.30;;;9.70;94.70;;;;;;5070120;28;20120;-43
2020/12/13 11:48:14;;;;;;;14.05;9.95;;;9.70;95.00;;;;;;5069729;28;20024;-42
2020/12/13 11:50:43;;;;;;;17.65;10.43;;;9.70;95.00;;;;;;5070332;28;20115;-43
2020/12/13 11:53:09;;;;;;;12.00;9.02;;;9.60;94.70;;;;;;5068986;28;20063;-43
2020/12/13 11:55:34;;;;;;;10.05;8.48;;;9.60;94.80;;;;;;5069748;28;20025;-43
2020/12/13 11:58:00;;;;;;;14.43;9.00;;;9.70;95.00;;;;;;5070149;28;20030;-42
2020/12/13 12:00:25;;;;;;;14.10;9.23;;;9.70;94.90;;;;;;5069844;28;20415;-43
2020/12/13 12:02:51;;;;;;;14.00;8.98;;;9.70;94.80;;;;;;5069747;28;20013;-43
2020/12/13 12:05:17;;;;;;;15.15;9.18;;;9.70;94.60;;;;;;5069526;28;20040;-42
2020/12/13 12:07:43;;;;;;;15.02;8.30;;;9.70;94.60;;;;;;5069696;28;20127;-44
2020/12/13 12:10:08;;;;;;;14.43;8.32;;;9.70;94.30;;;;;;5066612;28;20107;-43
2020/12/13 12:12:34;;;;;;;14.18;7.30;;;9.60;94.40;;;;;;5069860;28;20032;-43
2020/12/13 12:14:59;;;;;;;13.25;7.63;;;9.60;94.10;;;;;;5069798;28;20024;-42
2020/12/13 12:17:25;;;;;;;11.82;7.90;;;9.60;93.80;;;;;;5068759;28;20032;-43
2020/12/13 12:19:52;;;;;;;12.82;7.75;;;9.50;94.10;;;;;;5069873;28;20103;-43
2020/12/13 12:22:17;;;;;;;13.82;7.30;;;9.50;94.00;;;;;;5068392;28;20483;-43
2020/12/13 12:24:43;;;;;;;12.88;6.50;;;9.50;94.10;;;;;;5066030;28;20068;-42
2020/12/13 12:27:09;;;;;;;10.55;6.88;;;9.50;94.10;;;;;;5048391;28;20029;-44
2020/12/13 12:29:36;;;;;;;11.70;6.53;;;9.40;94.10;;;;;;5049679;28;20174;-43
2020/12/13 12:32:01;;;;;;;12.15;6.50;;;9.40;94.20;;;;;;5049563;28;20064;-43
2020/12/13 12:34:27;;;;;;;11.45;5.75;;;9.40;94.30;;;;;;5048978;28;20143;-43
2020/12/13 12:36:52;;;;;;;9.77;5.47;;;9.40;94.10;;;;;;5048911;28;20478;-43
2020/12/13 12:39:18;;;;;;;13.80;6.85;;;9.40;94.20;;;;;;5048900;28;20805;-42
2020/12/13 12:41:43;;;;;;;11.07;5.57;;;9.40;94.30;;;;;;5049293;28;20022;-46